sensor_id;sensor_type;location;lat;lon;timestamp;pressure;altitude;pressure_sealevel;temperature;humidity
69707;BME280;56975;55.726;37.566;2023-12-20T00:00:00;97940.0;;;3.8;100.0
69707;BME280;56975;55.726;37.566;2023-12-20T00:05:07;97950.0;;;3.4;100.0
69707;BME280;56975;55.726;37.566;2023-12-20T00:10:00;97950.0;;;3.8;100.0
69707;BME280;56975;55.726;37.566;2023-12-20T00:15:00;97950.0;;;3.6;100.0
69707;BME280;56975;55.726;37.566;2023-12-20T00:20:08;97950.0;;;3.7;100.0
69707;BME280;56975;55.726;37.566;2023-12-20T00:25:00;97960.0;;;3.8;100.0
69707;BME280;56975;55.726;37.566;2023-12-20T00:30:00;97960.0;;;3.7;100.0
69707;BME280;56975;55.726;37.566;2023-12-20T00:35:07;97960.0;;;3.9;100.0
69707;BME280;56975;55.726;37.566;2023-12-20T00:40:00;97960.0;;;3.8;100.0
69707;BME280;56975;55.726;37.566;2023-12-20T00:45:00;97970.0;;;4.1;100.0
69707;BME280;56975;55.726;37.566;2023-12-20T00:50:08;97980.0;;;3.8;100.0
69707;BME280;56975;55.726;37.566;2023-12-20T00:55:00;97960.0;;;4.0;100.0
69707;BME280;56975;55.726;37.566;2023-12-20T01:00:00;97960.0;;;3.9;100.0
69707;BME280;56975;55.726;37.566;2023-12-20T01:05:07;97960.0;;;3.9;100.0
69707;BME280;56975;55.726;37.566;2023-12-20T01:10:00;97940.0;;;3.8;100.0
69707;BME280;56975;55.726;37.566;2023-12-20T01:15:03;97950.0;;;4.1;99.6
69707;BME280;56975;55.726;37.566;2023-12-20T01:20:08;97930.0;;;3.8;99.9
69707;BME280;56975;55.726;37.566;2023-12-20T01:25:00;97930.0;;;3.8;100.0
69707;BME280;56975;55.726;37.566;2023-12-20T01:30:00;97940.0;;;3.7;100.0
69707;BME280;56975;55.726;37.566;2023-12-20T01:35:07;97950.0;;;3.8;99.1
69707;BME280;56975;55.726;37.566;2023-12-20T01:40:00;97930.0;;;3.8;99.2
69707;BME280;56975;55.726;37.566;2023-12-20T01:45:00;97930.0;;;3.9;98.0
69707;BME280;56975;55.726;37.566;2023-12-20T01:50:07;97920.0;;;3.9;98.2
69707;BME280;56975;55.726;37.566;2023-12-20T01:55:01;97900.0;;;3.7;98.4
69707;BME280;56975;55.726;37.566;2023-12-20T02:00:00;97910.0;;;3.4;99.1
69707;BME280;56975;55.726;37.566;2023-12-20T02:05:07;97910.0;;;3.6;98.9
69707;BME280;56975;55.726;37.566;2023-12-20T02:10:00;97920.0;;;3.7;98.2
69707;BME280;56975;55.726;37.566;2023-12-20T02:15:00;97910.0;;;3.7;97.7
69707;BME280;56975;55.726;37.566;2023-12-20T02:20:07;97910.0;;;3.3;99.4
69707;BME280;56975;55.726;37.566;2023-12-20T02:25:00;97880.0;;;3.8;96.6
69707;BME280;56975;55.726;37.566;2023-12-20T02:30:00;97890.0;;;3.3;98.6
69707;BME280;56975;55.726;37.566;2023-12-20T02:35:07;97880.0;;;3.6;97.6
69707;BME280;56975;55.726;37.566;2023-12-20T02:40:00;97890.0;;;3.5;97.9
69707;BME280;56975;55.726;37.566;2023-12-20T02:45:00;97890.0;;;3.6;98.8
69707;BME280;56975;55.726;37.566;2023-12-20T02:50:08;97890.0;;;3.6;97.6
69707;BME280;56975;55.726;37.566;2023-12-20T02:55:00;97900.0;;;3.5;98.5
69707;BME280;56975;55.726;37.566;2023-12-20T03:00:00;97900.0;;;3.7;98.5
69707;BME280;56975;55.726;37.566;2023-12-20T03:05:08;97890.0;;;3.3;100.0
69707;BME280;56975;55.726;37.566;2023-12-20T03:10:00;97870.0;;;3.4;99.9
69707;BME280;56975;55.726;37.566;2023-12-20T03:15:00;97880.0;;;3.7;98.7
69707;BME280;56975;55.726;37.566;2023-12-20T03:20:08;97890.0;;;3.7;98.4
69707;BME280;56975;55.726;37.566;2023-12-20T03:25:00;97890.0;;;3.6;99.2
69707;BME280;56975;55.726;37.566;2023-12-20T03:30:00;97890.0;;;3.5;100.0
69707;BME280;56975;55.726;37.566;2023-12-20T03:35:07;97890.0;;;3.2;100.0
69707;BME280;56975;55.726;37.566;2023-12-20T03:40:00;97890.0;;;3.4;100.0
69707;BME280;56975;55.726;37.566;2023-12-20T03:45:00;97890.0;;;3.5;100.0
69707;BME280;56975;55.726;37.566;2023-12-20T03:50:08;97900.0;;;3.4;100.0
69707;BME280;56975;55.726;37.566;2023-12-20T03:55:00;97890.0;;;3.6;100.0
69707;BME280;56975;55.726;37.566;2023-12-20T04:00:00;97900.0;;;3.8;99.4
69707;BME280;56975;55.726;37.566;2023-12-20T04:05:08;97910.0;;;3.6;100.0
69707;BME280;56975;55.726;37.566;2023-12-20T04:10:00;97900.0;;;3.5;100.0
69707;BME280;56975;55.726;37.566;2023-12-20T04:15:00;97910.0;;;3.6;100.0
69707;BME280;56975;55.726;37.566;2023-12-20T04:20:08;97910.0;;;3.9;98.3
69707;BME280;56975;55.726;37.566;2023-12-20T04:25:00;97910.0;;;3.9;98.5
69707;BME280;56975;55.726;37.566;2023-12-20T04:30:00;97900.0;;;3.6;99.6
69707;BME280;56975;55.726;37.566;2023-12-20T04:35:07;97920.0;;;3.9;98.6
69707;BME280;56975;55.726;37.566;2023-12-20T04:40:00;97920.0;;;3.8;98.7
69707;BME280;56975;55.726;37.566;2023-12-20T04:45:00;97920.0;;;3.8;98.6
69707;BME280;56975;55.726;37.566;2023-12-20T04:50:08;97940.0;;;3.9;97.3
69707;BME280;56975;55.726;37.566;2023-12-20T04:55:00;97930.0;;;4.0;94.9
69707;BME280;56975;55.726;37.566;2023-12-20T05:00:00;97930.0;;;4.0;94.0
69707;BME280;56975;55.726;37.566;2023-12-20T05:10:00;97920.0;;;3.6;96.4
69707;BME280;56975;55.726;37.566;2023-12-20T05:15:00;97920.0;;;3.8;96.2
69707;BME280;56975;55.726;37.566;2023-12-20T05:20:08;97920.0;;;3.7;95.8
69707;BME280;56975;55.726;37.566;2023-12-20T05:25:00;97930.0;;;3.8;94.6
69707;BME280;56975;55.726;37.566;2023-12-20T05:30:00;97930.0;;;3.5;97.6
69707;BME280;56975;55.726;37.566;2023-12-20T05:35:07;97930.0;;;3.8;94.9
69707;BME280;56975;55.726;37.566;2023-12-20T05:40:00;97950.0;;;3.9;93.7
69707;BME280;56975;55.726;37.566;2023-12-20T05:45:00;97950.0;;;4.0;93.1
69707;BME280;56975;55.726;37.566;2023-12-20T05:50:07;97940.0;;;3.8;94.1
69707;BME280;56975;55.726;37.566;2023-12-20T05:55:00;97950.0;;;4.0;93.8
69707;BME280;56975;55.726;37.566;2023-12-20T06:00:00;97940.0;;;3.8;94.2
69707;BME280;56975;55.726;37.566;2023-12-20T06:05:07;97950.0;;;4.0;93.9
69707;BME280;56975;55.726;37.566;2023-12-20T06:10:00;97950.0;;;3.8;93.9
69707;BME280;56975;55.726;37.566;2023-12-20T06:15:00;97960.0;;;4.1;92.5
69707;BME280;56975;55.726;37.566;2023-12-20T06:20:08;97960.0;;;4.1;92.4
69707;BME280;56975;55.726;37.566;2023-12-20T06:25:00;97960.0;;;4.0;92.5
69707;BME280;56975;55.726;37.566;2023-12-20T06:30:00;97960.0;;;4.1;92.2
69707;BME280;56975;55.726;37.566;2023-12-20T06:35:08;97980.0;;;4.1;91.1
69707;BME280;56975;55.726;37.566;2023-12-20T06:40:00;97960.0;;;4.1;91.5
69707;BME280;56975;55.726;37.566;2023-12-20T06:45:00;97970.0;;;4.2;89.6
69707;BME280;56975;55.726;37.566;2023-12-20T06:50:07;97960.0;;;4.3;90.0
69707;BME280;56975;55.726;37.566;2023-12-20T06:55:00;97980.0;;;4.3;89.7
69707;BME280;56975;55.726;37.566;2023-12-20T07:00:00;97960.0;;;4.3;90.0
69707;BME280;56975;55.726;37.566;2023-12-20T07:05:07;97970.0;;;4.3;90.0
69707;BME280;56975;55.726;37.566;2023-12-20T07:10:00;97960.0;;;4.2;90.8
69707;BME280;56975;55.726;37.566;2023-12-20T07:15:00;97960.0;;;4.2;90.6
69707;BME280;56975;55.726;37.566;2023-12-20T07:25:00;97990.0;;;4.3;90.0
69707;BME280;56975;55.726;37.566;2023-12-20T07:30:00;97970.0;;;4.2;90.6
69707;BME280;56975;55.726;37.566;2023-12-20T07:35:08;97980.0;;;4.4;89.1
69707;BME280;56975;55.726;37.566;2023-12-20T07:40:00;97990.0;;;4.2;89.8
69707;BME280;56975;55.726;37.566;2023-12-20T07:45:00;97990.0;;;4.2;89.8
69707;BME280;56975;55.726;37.566;2023-12-20T07:50:07;97990.0;;;4.2;90.4
69707;BME280;56975;55.726;37.566;2023-12-20T07:55:00;98010.0;;;4.3;89.7
69707;BME280;56975;55.726;37.566;2023-12-20T08:00:00;98010.0;;;4.2;89.7
69707;BME280;56975;55.726;37.566;2023-12-20T08:05:07;98010.0;;;4.2;90.8
69707;BME280;56975;55.726;37.566;2023-12-20T08:10:00;98020.0;;;4.5;88.3
69707;BME280;56975;55.726;37.566;2023-12-20T08:15:01;98010.0;;;4.5;88.3
69707;BME280;56975;55.726;37.566;2023-12-20T08:20:07;98010.0;;;4.1;89.9
69707;BME280;56975;55.726;37.566;2023-12-20T08:25:00;98010.0;;;4.3;89.5
69707;BME280;56975;55.726;37.566;2023-12-20T08:30:00;98010.0;;;4.5;89.0
69707;BME280;56975;55.726;37.566;2023-12-20T08:35:07;98000.0;;;4.4;89.6
69707;BME280;56975;55.726;37.566;2023-12-20T08:40:00;98000.0;;;4.4;90.3
69707;BME280;56975;55.726;37.566;2023-12-20T08:45:00;98000.0;;;4.7;89.5
69707;BME280;56975;55.726;37.566;2023-12-20T08:50:07;97990.0;;;4.2;91.5
69707;BME280;56975;55.726;37.566;2023-12-20T08:55:00;98000.0;;;4.4;90.1
69707;BME280;56975;55.726;37.566;2023-12-20T09:00:00;97990.0;;;4.6;90.3
69707;BME280;56975;55.726;37.566;2023-12-20T09:05:07;97990.0;;;4.7;90.1
69707;BME280;56975;55.726;37.566;2023-12-20T09:10:00;98000.0;;;4.4;92.2
69707;BME280;56975;55.726;37.566;2023-12-20T09:15:00;97990.0;;;4.3;92.3
69707;BME280;56975;55.726;37.566;2023-12-20T09:20:08;97980.0;;;4.4;93.2
69707;BME280;56975;55.726;37.566;2023-12-20T09:25:00;97990.0;;;4.5;92.2
69707;BME280;56975;55.726;37.566;2023-12-20T09:30:00;97980.0;;;4.3;93.2
69707;BME280;56975;55.726;37.566;2023-12-20T09:35:08;97990.0;;;4.3;92.8
69707;BME280;56975;55.726;37.566;2023-12-20T09:40:00;97980.0;;;4.2;94.3
69707;BME280;56975;55.726;37.566;2023-12-20T09:45:01;97980.0;;;4.4;92.7
69707;BME280;56975;55.726;37.566;2023-12-20T09:50:08;97970.0;;;4.1;95.3
69707;BME280;56975;55.726;37.566;2023-12-20T09:55:01;97980.0;;;4.4;92.9
69707;BME280;56975;55.726;37.566;2023-12-20T10:00:00;97980.0;;;4.6;92.2
69707;BME280;56975;55.726;37.566;2023-12-20T10:05:07;97980.0;;;4.2;94.1
69707;BME280;56975;55.726;37.566;2023-12-20T10:10:01;97980.0;;;4.7;92.0
69707;BME280;56975;55.726;37.566;2023-12-20T10:15:00;97990.0;;;4.6;91.6
69707;BME280;56975;55.726;37.566;2023-12-20T10:20:08;98000.0;;;4.3;94.3
69707;BME280;56975;55.726;37.566;2023-12-20T10:25:00;97990.0;;;4.2;94.3
69707;BME280;56975;55.726;37.566;2023-12-20T10:30:00;97990.0;;;4.3;94.3
69707;BME280;56975;55.726;37.566;2023-12-20T10:35:08;98000.0;;;4.6;92.0
69707;BME280;56975;55.726;37.566;2023-12-20T10:40:03;98000.0;;;4.3;94.5
69707;BME280;56975;55.726;37.566;2023-12-20T10:45:00;98000.0;;;4.4;94.0
69707;BME280;56975;55.726;37.566;2023-12-20T10:50:08;97990.0;;;4.5;93.0
69707;BME280;56975;55.726;37.566;2023-12-20T10:55:00;98000.0;;;4.5;93.0
69707;BME280;56975;55.726;37.566;2023-12-20T11:00:01;98000.0;;;4.7;91.7
69707;BME280;56975;55.726;37.566;2023-12-20T11:10:03;98000.0;;;4.8;91.0
69707;BME280;56975;55.726;37.566;2023-12-20T11:15:00;97990.0;;;4.3;92.3
69707;BME280;56975;55.726;37.566;2023-12-20T11:20:08;98000.0;;;4.4;92.0
69707;BME280;56975;55.726;37.566;2023-12-20T11:25:04;98010.0;;;4.7;92.0
69707;BME280;56975;55.726;37.566;2023-12-20T11:30:02;97990.0;;;4.8;90.7
69707;BME280;56975;55.726;37.566;2023-12-20T11:40:01;97990.0;;;4.7;91.1
69707;BME280;56975;55.726;37.566;2023-12-20T11:45:01;97980.0;;;4.6;91.3
69707;BME280;56975;55.726;37.566;2023-12-20T11:50:07;97990.0;;;4.5;92.7
69707;BME280;56975;55.726;37.566;2023-12-20T11:55:00;97990.0;;;4.5;93.2
69707;BME280;56975;55.726;37.566;2023-12-20T12:00:00;98010.0;;;4.4;93.9
69707;BME280;56975;55.726;37.566;2023-12-20T12:05:07;98000.0;;;4.2;94.7
69707;BME280;56975;55.726;37.566;2023-12-20T12:10:00;98010.0;;;4.0;96.1
69707;BME280;56975;55.726;37.566;2023-12-20T12:15:00;98000.0;;;4.2;95.9
69707;BME280;56975;55.726;37.566;2023-12-20T12:20:08;98000.0;;;4.1;96.5
69707;BME280;56975;55.726;37.566;2023-12-20T12:25:09;98020.0;;;4.2;96.8
69707;BME280;56975;55.726;37.566;2023-12-20T12:30:00;98010.0;;;3.8;98.7
69707;BME280;56975;55.726;37.566;2023-12-20T12:35:08;98010.0;;;3.8;99.0
69707;BME280;56975;55.726;37.566;2023-12-20T12:40:00;98030.0;;;4.0;98.6
69707;BME280;56975;55.726;37.566;2023-12-20T12:45:00;98030.0;;;3.8;98.9
69707;BME280;56975;55.726;37.566;2023-12-20T12:50:08;98040.0;;;3.8;98.5
69707;BME280;56975;55.726;37.566;2023-12-20T12:55:00;98050.0;;;4.0;97.1
69707;BME280;56975;55.726;37.566;2023-12-20T13:00:00;98050.0;;;3.8;98.7
69707;BME280;56975;55.726;37.566;2023-12-20T13:05:07;98050.0;;;3.7;99.4
69707;BME280;56975;55.726;37.566;2023-12-20T13:10:00;98040.0;;;3.5;99.7
69707;BME280;56975;55.726;37.566;2023-12-20T13:15:00;98040.0;;;3.9;97.5
69707;BME280;56975;55.726;37.566;2023-12-20T13:20:08;98040.0;;;4.1;96.7
69707;BME280;56975;55.726;37.566;2023-12-20T13:25:00;98030.0;;;4.3;94.2
69707;BME280;56975;55.726;37.566;2023-12-20T13:30:00;98040.0;;;4.1;94.7
69707;BME280;56975;55.726;37.566;2023-12-20T13:35:07;98050.0;;;4.0;95.5
69707;BME280;56975;55.726;37.566;2023-12-20T13:40:00;98050.0;;;4.0;95.7
69707;BME280;56975;55.726;37.566;2023-12-20T13:45:00;98050.0;;;4.1;94.7
69707;BME280;56975;55.726;37.566;2023-12-20T13:50:07;98050.0;;;3.9;96.3
69707;BME280;56975;55.726;37.566;2023-12-20T13:55:00;98050.0;;;3.8;96.5
69707;BME280;56975;55.726;37.566;2023-12-20T14:00:00;98050.0;;;3.8;95.8
69707;BME280;56975;55.726;37.566;2023-12-20T14:05:08;98040.0;;;3.5;96.9
69707;BME280;56975;55.726;37.566;2023-12-20T14:10:00;98070.0;;;3.7;97.0
69707;BME280;56975;55.726;37.566;2023-12-20T14:15:00;98060.0;;;3.5;96.2
69707;BME280;56975;55.726;37.566;2023-12-20T14:20:08;98070.0;;;3.4;96.8
69707;BME280;56975;55.726;37.566;2023-12-20T14:25:00;98070.0;;;3.9;95.1
69707;BME280;56975;55.726;37.566;2023-12-20T14:30:00;98070.0;;;3.8;95.5
69707;BME280;56975;55.726;37.566;2023-12-20T14:35:08;98090.0;;;3.8;94.0
69707;BME280;56975;55.726;37.566;2023-12-20T14:40:00;98090.0;;;4.0;93.2
69707;BME280;56975;55.726;37.566;2023-12-20T14:45:00;98070.0;;;3.7;93.7
69707;BME280;56975;55.726;37.566;2023-12-20T14:50:08;98090.0;;;4.0;92.4
69707;BME280;56975;55.726;37.566;2023-12-20T14:55:00;98080.0;;;3.5;95.5
69707;BME280;56975;55.726;37.566;2023-12-20T15:00:00;98080.0;;;4.0;92.6
69707;BME280;56975;55.726;37.566;2023-12-20T15:05:07;98080.0;;;3.8;93.5
69707;BME280;56975;55.726;37.566;2023-12-20T15:10:00;98090.0;;;4.0;92.6
69707;BME280;56975;55.726;37.566;2023-12-20T15:15:00;98090.0;;;3.9;92.3
69707;BME280;56975;55.726;37.566;2023-12-20T15:20:08;98090.0;;;3.6;93.6
69707;BME280;56975;55.726;37.566;2023-12-20T15:25:00;98090.0;;;3.7;93.9
69707;BME280;56975;55.726;37.566;2023-12-20T15:30:00;98090.0;;;3.6;95.4
69707;BME280;56975;55.726;37.566;2023-12-20T15:35:08;98080.0;;;3.8;94.7
69707;BME280;56975;55.726;37.566;2023-12-20T15:40:00;98090.0;;;3.8;95.9
69707;BME280;56975;55.726;37.566;2023-12-20T15:45:00;98100.0;;;3.7;96.0
69707;BME280;56975;55.726;37.566;2023-12-20T15:50:07;98110.0;;;3.5;98.1
69707;BME280;56975;55.726;37.566;2023-12-20T15:55:01;98120.0;;;3.5;96.5
69707;BME280;56975;55.726;37.566;2023-12-20T16:00:00;98130.0;;;3.6;96.0
69707;BME280;56975;55.726;37.566;2023-12-20T16:05:08;98140.0;;;3.6;95.1
69707;BME280;56975;55.726;37.566;2023-12-20T16:10:00;98140.0;;;3.5;95.8
69707;BME280;56975;55.726;37.566;2023-12-20T16:15:00;98140.0;;;3.5;95.0
69707;BME280;56975;55.726;37.566;2023-12-20T16:20:08;98140.0;;;3.5;95.4
69707;BME280;56975;55.726;37.566;2023-12-20T16:25:00;98150.0;;;3.3;96.1
69707;BME280;56975;55.726;37.566;2023-12-20T16:30:00;98150.0;;;3.3;96.4
69707;BME280;56975;55.726;37.566;2023-12-20T16:35:07;98150.0;;;3.4;93.9
69707;BME280;56975;55.726;37.566;2023-12-20T16:40:00;98140.0;;;3.6;92.0
69707;BME280;56975;55.726;37.566;2023-12-20T16:45:00;98140.0;;;3.6;90.9
69707;BME280;56975;55.726;37.566;2023-12-20T16:55:00;98140.0;;;3.6;89.3
69707;BME280;56975;55.726;37.566;2023-12-20T17:00:00;98150.0;;;3.3;90.6
69707;BME280;56975;55.726;37.566;2023-12-20T17:05:08;98150.0;;;3.3;89.2
69707;BME280;56975;55.726;37.566;2023-12-20T17:10:00;98150.0;;;3.3;88.9
69707;BME280;56975;55.726;37.566;2023-12-20T17:15:00;98150.0;;;3.2;86.4
69707;BME280;56975;55.726;37.566;2023-12-20T17:20:08;98150.0;;;3.5;83.4
69707;BME280;56975;55.726;37.566;2023-12-20T17:25:00;98160.0;;;3.1;85.1
69707;BME280;56975;55.726;37.566;2023-12-20T17:30:00;98160.0;;;3.3;84.3
69707;BME280;56975;55.726;37.566;2023-12-20T17:40:00;98170.0;;;2.9;86.1
69707;BME280;56975;55.726;37.566;2023-12-20T17:45:00;98160.0;;;3.0;85.8
69707;BME280;56975;55.726;37.566;2023-12-20T17:50:07;98160.0;;;3.0;86.7
69707;BME280;56975;55.726;37.566;2023-12-20T17:55:00;98160.0;;;2.8;87.3
69707;BME280;56975;55.726;37.566;2023-12-20T18:00:10;98160.0;;;3.1;86.5
69707;BME280;56975;55.726;37.566;2023-12-20T18:10:00;98160.0;;;2.7;88.7
69707;BME280;56975;55.726;37.566;2023-12-20T18:15:00;98150.0;;;2.8;88.2
69707;BME280;56975;55.726;37.566;2023-12-20T18:20:07;98160.0;;;2.9;88.2
69707;BME280;56975;55.726;37.566;2023-12-20T18:25:00;98170.0;;;2.8;88.3
69707;BME280;56975;55.726;37.566;2023-12-20T18:30:00;98160.0;;;2.8;88.6
69707;BME280;56975;55.726;37.566;2023-12-20T18:35:07;98160.0;;;2.9;88.2
69707;BME280;56975;55.726;37.566;2023-12-20T18:40:00;98160.0;;;2.6;90.2
69707;BME280;56975;55.726;37.566;2023-12-20T18:45:00;98150.0;;;2.6;89.3
69707;BME280;56975;55.726;37.566;2023-12-20T18:50:07;98160.0;;;2.7;88.3
69707;BME280;56975;55.726;37.566;2023-12-20T18:55:00;98160.0;;;2.8;87.5
69707;BME280;56975;55.726;37.566;2023-12-20T19:00:00;98160.0;;;2.8;87.1
69707;BME280;56975;55.726;37.566;2023-12-20T19:05:07;98170.0;;;2.5;88.5
69707;BME280;56975;55.726;37.566;2023-12-20T19:10:00;98160.0;;;2.3;89.8
69707;BME280;56975;55.726;37.566;2023-12-20T19:15:00;98160.0;;;2.4;89.8
69707;BME280;56975;55.726;37.566;2023-12-20T19:20:08;98160.0;;;2.3;89.8
69707;BME280;56975;55.726;37.566;2023-12-20T19:25:00;98160.0;;;2.5;89.8
69707;BME280;56975;55.726;37.566;2023-12-20T19:30:00;98160.0;;;2.4;90.1
69707;BME280;56975;55.726;37.566;2023-12-20T19:40:00;98150.0;;;2.7;88.2
69707;BME280;56975;55.726;37.566;2023-12-20T19:45:00;98150.0;;;2.4;89.5
69707;BME280;56975;55.726;37.566;2023-12-20T19:55:00;98150.0;;;2.6;88.5
69707;BME280;56975;55.726;37.566;2023-12-20T20:00:00;98140.0;;;2.5;87.7
69707;BME280;56975;55.726;37.566;2023-12-20T20:05:07;98150.0;;;2.7;86.0
69707;BME280;56975;55.726;37.566;2023-12-20T20:10:00;98150.0;;;2.5;87.8
69707;BME280;56975;55.726;37.566;2023-12-20T20:15:00;98150.0;;;2.5;87.8
69707;BME280;56975;55.726;37.566;2023-12-20T20:20:08;98150.0;;;2.4;87.6
69707;BME280;56975;55.726;37.566;2023-12-20T20:25:00;98140.0;;;2.3;88.5
69707;BME280;56975;55.726;37.566;2023-12-20T20:30:00;98140.0;;;2.0;90.4
69707;BME280;56975;55.726;37.566;2023-12-20T20:35:08;98130.0;;;2.0;90.0
69707;BME280;56975;55.726;37.566;2023-12-20T20:40:00;98120.0;;;2.4;89.0
69707;BME280;56975;55.726;37.566;2023-12-20T20:45:00;98120.0;;;2.4;88.6
69707;BME280;56975;55.726;37.566;2023-12-20T20:50:08;98120.0;;;2.4;88.3
69707;BME280;56975;55.726;37.566;2023-12-20T20:55:00;98110.0;;;2.6;88.0
69707;BME280;56975;55.726;37.566;2023-12-20T21:00:00;98110.0;;;2.5;87.9
69707;BME280;56975;55.726;37.566;2023-12-20T21:05:07;98110.0;;;2.6;87.7
69707;BME280;56975;55.726;37.566;2023-12-20T21:10:00;98110.0;;;2.5;86.9
69707;BME280;56975;55.726;37.566;2023-12-20T21:15:00;98090.0;;;2.3;88.6
69707;BME280;56975;55.726;37.566;2023-12-20T21:20:08;98070.0;;;2.6;88.0
69707;BME280;56975;55.726;37.566;2023-12-20T21:25:00;98050.0;;;2.4;87.4
69707;BME280;56975;55.726;37.566;2023-12-20T21:30:00;98050.0;;;2.6;87.3
69707;BME280;56975;55.726;37.566;2023-12-20T21:35:07;98030.0;;;2.3;88.1
69707;BME280;56975;55.726;37.566;2023-12-20T21:40:00;98010.0;;;2.2;89.1
69707;BME280;56975;55.726;37.566;2023-12-20T21:45:00;98000.0;;;1.9;89.7
69707;BME280;56975;55.726;37.566;2023-12-20T21:50:07;97990.0;;;1.9;90.1
69707;BME280;56975;55.726;37.566;2023-12-20T21:55:00;97980.0;;;1.9;91.1
69707;BME280;56975;55.726;37.566;2023-12-20T22:00:00;97970.0;;;2.0;91.3
69707;BME280;56975;55.726;37.566;2023-12-20T22:05:07;97960.0;;;1.9;92.7
69707;BME280;56975;55.726;37.566;2023-12-20T22:10:00;97940.0;;;2.0;93.0
69707;BME280;56975;55.726;37.566;2023-12-20T22:15:00;97940.0;;;1.9;93.6
69707;BME280;56975;55.726;37.566;2023-12-20T22:20:08;97930.0;;;2.0;93.5
69707;BME280;56975;55.726;37.566;2023-12-20T22:25:00;97920.0;;;2.1;94.0
69707;BME280;56975;55.726;37.566;2023-12-20T22:30:00;97920.0;;;2.1;94.8
69707;BME280;56975;55.726;37.566;2023-12-20T22:35:08;97910.0;;;1.8;99.0
69707;BME280;56975;55.726;37.566;2023-12-20T22:40:00;97910.0;;;2.0;99.3
69707;BME280;56975;55.726;37.566;2023-12-20T22:45:00;97910.0;;;1.9;100.0
69707;BME280;56975;55.726;37.566;2023-12-20T22:55:00;97890.0;;;1.7;100.0
69707;BME280;56975;55.726;37.566;2023-12-20T23:00:00;97870.0;;;1.7;100.0
69707;BME280;56975;55.726;37.566;2023-12-20T23:05:07;97870.0;;;1.7;100.0
69707;BME280;56975;55.726;37.566;2023-12-20T23:10:06;97860.0;;;1.6;100.0
69707;BME280;56975;55.726;37.566;2023-12-20T23:15:00;97870.0;;;1.8;100.0
69707;BME280;56975;55.726;37.566;2023-12-20T23:20:08;97870.0;;;1.7;100.0
69707;BME280;56975;55.726;37.566;2023-12-20T23:25:19;97870.0;;;1.6;100.0
69707;BME280;56975;55.726;37.566;2023-12-20T23:30:00;97870.0;;;1.6;100.0
69707;BME280;56975;55.726;37.566;2023-12-20T23:40:00;97860.0;;;1.6;100.0
69707;BME280;56975;55.726;37.566;2023-12-20T23:45:00;97850.0;;;1.8;100.0
69707;BME280;56975;55.726;37.566;2023-12-20T23:50:08;97840.0;;;1.2;100.0
69707;BME280;56975;55.726;37.566;2023-12-20T23:55:00;97840.0;;;1.1;100.0
